Time;durP1;ratioP1;P1;durP2;ratioP2;P2;SDS_P1;SDS_P2;PMS_P1;PMS_P2;Temp;Humidity;BMP_temperature;BMP_pressure;BME280_temperature;BME280_humidity;BME280_pressure;Samples;Min_cycle;Max_cycle;Signal;HPM_P1;HPM_P2
2023/03/01 00:01:28;;;;;;;;;;;;;;;;;;4976428;28;19941;-48
2023/03/01 00:03:53;;;;;;;;;;;;;;;;;;4976597;28;19913;-46
2023/03/01 00:06:19;;;;;;;;;;;;;;;;;;4975427;28;19902;-48
2023/03/01 00:08:45;;;;;;;;;;;;;;;;;;4966713;28;19914;-50
2023/03/01 00:11:11;;;;;;;;;;;;;;;;;;4975728;28;20005;-51
2023/03/01 00:13:37;;;;;;;;;;;;;;;;;;4975880;28;20319;-47
2023/03/01 00:16:03;;;;;;;;;;;;;;;;;;4975370;28;19906;-49
2023/03/01 00:18:29;;;;;;;;;;;;;;;;;;4976536;28;19937;-47
2023/03/01 00:20:55;;;;;;;;;;;;;;;;;;4969190;28;20389;-50
2023/03/01 00:23:21;;;;;;;;;;;;;;;;;;4959680;28;19941;-47
2023/03/01 00:25:46;;;;;;;;;;;;;;;;;;4965163;28;19963;-49
2023/03/01 00:28:12;;;;;;;;;;;;;;;;;;4975517;28;19932;-47
2023/03/01 00:30:38;;;;;;;;;;;;;;;;;;4975967;28;20283;-47
2023/03/01 00:33:04;;;;;;;;;;;;;;;;;;4975739;28;19906;-47
2023/03/01 00:35:30;;;;;;;;;;;;;;;;;;4975956;28;20003;-48
2023/03/01 00:37:57;;;;;;;;;;;;;;;;;;4976209;28;19922;-50
2023/03/01 00:40:23;;;;;;;;;;;;;;;;;;4974676;28;19917;-51
2023/03/01 00:42:49;;;;;;;;;;;;;;;;;;4964850;28;20355;-51
2023/03/01 00:45:15;;;;;;;;;;;;;;;;;;4974918;28;19917;-48
2023/03/01 00:47:41;;;;;;;;;;;;;;;;;;4970906;28;20346;-48
2023/03/01 00:50:07;;;;;;;;;;;;;;;;;;4968658;28;19906;-51
2023/03/01 00:52:33;;;;;;;;;;;;;;;;;;4975922;28;20310;-49
2023/03/01 00:54:59;;;;;;;;;;;;;;;;;;4975279;28;19961;-45
2023/03/01 00:57:24;;;;;;;;;;;;;;;;;;4965353;28;19926;-47
2023/03/01 00:59:52;;;;;;;;;;;;;;;;;;4975548;28;19913;-50
2023/03/01 01:02:17;;;;;;;;;;;;;;;;;;4974970;28;19979;-48
2023/03/01 01:04:43;;;;;;;;;;;;;;;;;;4975295;28;19909;-47
2023/03/01 01:07:09;;;;;;;;;;;;;;;;;;4974687;28;19913;-51
2023/03/01 01:09:36;;;;;;;;;;;;;;;;;;4975162;28;20024;-48
2023/03/01 01:12:02;;;;;;;;;;;;;;;;;;4974824;28;19906;-45
2023/03/01 01:14:28;;;;;;;;;;;;;;;;;;4969511;28;19918;-47
2023/03/01 01:16:54;;;;;;;;;;;;;;;;;;4975173;28;19957;-47
2023/03/01 01:19:19;;;;;;;;;;;;;;;;;;4974173;28;19993;-48
2023/03/01 01:21:46;;;;;;;;;;;;;;;;;;4975380;28;20083;-47
2023/03/01 01:24:11;;;;;;;;;;;;;;;;;;4974038;28;19913;-47
2023/03/01 01:26:37;;;;;;;;;;;;;;;;;;4974757;28;19906;-48
2023/03/01 01:29:03;;;;;;;;;;;;;;;;;;4974304;28;19906;-45
2023/03/01 01:31:29;;;;;;;;;;;;;;;;;;4975275;28;19973;-49
2023/03/01 01:33:55;;;;;;;;;;;;;;;;;;4970370;28;19922;-46
2023/03/01 01:36:21;;;;;;;;;;;;;;;;;;4973685;28;19902;-48
2023/03/01 01:38:47;;;;;;;;;;;;;;;;;;4975140;28;19997;-48
2023/03/01 01:41:13;;;;;;;;;;;;;;;;;;4973678;28;20375;-48
2023/03/01 01:43:40;;;;;;;;;;;;;;;;;;4974638;28;19961;-47
2023/03/01 01:46:06;;;;;;;;;;;;;;;;;;4972452;28;19928;-49
2023/03/01 01:48:40;;;;;;;;;;;;;;;;;;4970032;28;19914;-47
2023/03/01 01:51:05;;;;;;;;;;;;;;;;;;4970354;28;19910;-46
2023/03/01 01:53:31;;;;;;;;;;;;;;;;;;4972389;28;19913;-48
2023/03/01 01:55:57;;;;;;;;;;;;;;;;;;4973053;28;20418;-49
2023/03/01 01:58:23;;;;;;;;;;;;;;;;;;4972329;28;20417;-48
2023/03/01 02:00:49;;;;;;;;;;;;;;;;;;4972677;28;19910;-48
2023/03/01 02:03:17;;;;;;;;;;;;;;;;;;4972531;28;19910;-47
2023/03/01 02:05:43;;;;;;;;;;;;;;;;;;4969777;28;19917;-46
2023/03/01 02:08:09;;;;;;;;;;;;;;;;;;4973835;28;20282;-48
2023/03/01 02:10:35;;;;;;;;;;;;;;;;;;4972982;28;19913;-47
2023/03/01 02:13:01;;;;;;;;;;;;;;;;;;4973914;28;19913;-46
2023/03/01 02:15:26;;;;;;;;;;;;;;;;;;4973143;28;19925;-50
2023/03/01 02:17:52;;;;;;;;;;;;;;;;;;4974330;28;19914;-46
2023/03/01 02:20:18;;;;;;;;;;;;;;;;;;4972883;28;19906;-47
2023/03/01 02:22:44;;;;;;;;;;;;;;;;;;4968471;28;20927;-46
2023/03/01 02:25:10;;;;;;;;;;;;;;;;;;4947814;28;20001;-50
2023/03/01 02:27:36;;;;;;;;;;;;;;;;;;4972565;28;20306;-47
2023/03/01 02:30:02;;;;;;;;;;;;;;;;;;4973036;28;19906;-45
2023/03/01 02:32:28;;;;;;;;;;;;;;;;;;4974371;28;19913;-47
2023/03/01 02:34:54;;;;;;;;;;;;;;;;;;4973466;28;19992;-47
2023/03/01 02:37:24;;;;;;;;;;;;;;;;;;4973259;28;19910;-47
2023/03/01 02:39:50;;;;;;;;;;;;;;;;;;4973652;28;19906;-48
2023/03/01 02:42:16;;;;;;;;;;;;;;;;;;4953416;28;19910;-46
2023/03/01 02:44:42;;;;;;;;;;;;;;;;;;4971488;28;19934;-48
2023/03/01 02:47:08;;;;;;;;;;;;;;;;;;4962841;28;20401;-47
2023/03/01 02:49:34;;;;;;;;;;;;;;;;;;4973239;28;19906;-47
2023/03/01 02:52:00;;;;;;;;;;;;;;;;;;4973588;28;19914;-45
2023/03/01 02:54:26;;;;;;;;;;;;;;;;;;4963338;28;20415;-48
2023/03/01 02:56:52;;;;;;;;;;;;;;;;;;4970026;28;19914;-47
2023/03/01 02:59:17;;;;;;;;;;;;;;;;;;4960470;28;19906;-47
2023/03/01 03:01:43;;;;;;;;;;;;;;;;;;4967700;28;20378;-49
2023/03/01 03:04:09;;;;;;;;;;;;;;;;;;4972504;28;19913;-48
2023/03/01 03:06:35;;;;;;;;;;;;;;;;;;4973455;28;19910;-49
2023/03/01 03:09:01;;;;;;;;;;;;;;;;;;4973189;28;19906;-46
2023/03/01 03:11:27;;;;;;;;;;;;;;;;;;4972718;28;20379;-47
2023/03/01 03:13:53;;;;;;;;;;;;;;;;;;4973198;28;19918;-52
2023/03/01 03:16:19;;;;;;;;;;;;;;;;;;4960699;28;19911;-46
2023/03/01 03:18:45;;;;;;;;;;;;;;;;;;4973578;28;19942;-51
2023/03/01 03:21:11;;;;;;;;;;;;;;;;;;4975554;28;19906;-50
2023/03/01 03:23:37;;;;;;;;;;;;;;;;;;4967692;28;20406;-48
2023/03/01 03:26:03;;;;;;;;;;;;;;;;;;4976700;28;19993;-46
2023/03/01 03:28:30;;;;;;;;;;;;;;;;;;4979959;28;19910;-47
2023/03/01 03:30:56;;;;;;;;;;;;;;;;;;4979381;28;19964;-48
2023/03/01 03:33:22;;;;;;;;;;;;;;;;;;4968926;28;20553;-46
2023/03/01 03:35:48;;;;;;;;;;;;;;;;;;4974507;28;19913;-47
2023/03/01 03:38:15;;;;;;;;;;;;;;;;;;4970885;28;19914;-47
2023/03/01 03:40:41;;;;;;;;;;;;;;;;;;4979011;28;19905;-47
2023/03/01 03:43:07;;;;;;;;;;;;;;;;;;4978873;28;20355;-49
2023/03/01 03:45:33;;;;;;;;;;;;;;;;;;4964952;28;19907;-48
2023/03/01 03:47:59;;;;;;;;;;;;;;;;;;4971279;28;19906;-47
2023/03/01 03:50:24;;;;;;;;;;;;;;;;;;4956913;28;19914;-48
2023/03/01 03:52:50;;;;;;;;;;;;;;;;;;4979777;28;19910;-46
2023/03/01 03:55:19;;;;;;;;;;;;;;;;;;4978085;28;20430;-48
2023/03/01 03:57:51;;;;;;;;;;;;;;;;;;4971798;28;19914;-48
2023/03/01 04:00:16;;;;;;;;;;;;;;;;;;4977246;28;20000;-47
2023/03/01 04:02:42;;;;;;;;;;;;;;;;;;4979624;28;20005;-47
2023/03/01 04:05:08;;;;;;;;;;;;;;;;;;4978551;28;19917;-48
2023/03/01 04:07:34;;;;;;;;;;;;;;;;;;4969233;28;19917;-51
2023/03/01 04:10:00;;;;;;;;;;;;;;;;;;4978751;28;19941;-46
2023/03/01 04:12:26;;;;;;;;;;;;;;;;;;4979369;28;20347;-47
2023/03/01 04:14:52;;;;;;;;;;;;;;;;;;4978464;28;19918;-49
2023/03/01 04:17:18;;;;;;;;;;;;;;;;;;4978325;28;19914;-48
2023/03/01 04:19:48;;;;;;;;;;;;;;;;;;4979139;28;19961;-47
2023/03/01 04:22:17;;;;;;;;;;;;;;;;;;4974399;28;19925;-45
2023/03/01 04:24:43;;;;;;;;;;;;;;;;;;4975013;28;19910;-47
2023/03/01 04:27:09;;;;;;;;;;;;;;;;;;4976597;28;19906;-47
2023/03/01 04:29:34;;;;;;;;;;;;;;;;;;4978840;28;20517;-48
2023/03/01 04:32:00;;;;;;;;;;;;;;;;;;4977445;28;19906;-46
2023/03/01 04:34:26;;;;;;;;;;;;;;;;;;4975102;28;19997;-48
2023/03/01 04:36:52;;;;;;;;;;;;;;;;;;4976117;28;20371;-47
2023/03/01 04:39:18;;;;;;;;;;;;;;;;;;4963812;28;20025;-47
2023/03/01 04:41:44;;;;;;;;;;;;;;;;;;4957785;28;19953;-50
2023/03/01 04:44:10;;;;;;;;;;;;;;;;;;4954780;28;20291;-47
2023/03/01 04:46:36;;;;;;;;;;;;;;;;;;4957185;28;19998;-50
2023/03/01 04:49:01;;;;;;;;;;;;;;;;;;4956795;28;19911;-45
2023/03/01 04:51:27;;;;;;;;;;;;;;;;;;4958756;28;19906;-49
2023/03/01 04:53:53;;;;;;;;;;;;;;;;;;4957788;28;19911;-50
2023/03/01 04:56:19;;;;;;;;;;;;;;;;;;4953701;28;19906;-48
2023/03/01 04:58:45;;;;;;;;;;;;;;;;;;4957367;28;19926;-48
2023/03/01 05:01:14;;;;;;;;;;;;;;;;;;4969668;28;19913;-47
2023/03/01 05:03:40;;;;;;;;;;;;;;;;;;4972333;28;19912;-50
2023/03/01 05:06:06;;;;;;;;;;;;;;;;;;4974197;28;19983;-47
2023/03/01 05:08:34;;;;;;;;;;;;;;;;;;4975735;28;19913;-47
2023/03/01 05:10:59;;;;;;;;;;;;;;;;;;4974849;28;19910;-48
2023/03/01 05:13:26;;;;;;;;;;;;;;;;;;4965564;28;19993;-49
2023/03/01 05:15:51;;;;;;;;;;;;;;;;;;4975230;28;20272;-48
2023/03/01 05:18:17;;;;;;;;;;;;;;;;;;4964495;28;19914;-49
2023/03/01 05:20:44;;;;;;;;;;;;;;;;;;4955509;29;20433;-47
2023/03/01 05:23:10;;;;;;;;;;;;;;;;;;4954975;29;19971;-48
2023/03/01 05:25:39;;;;;;;;;;;;;;;;;;4955224;28;19949;-48
2023/03/01 05:28:05;;;;;;;;;;;;;;;;;;4955306;29;19981;-47
2023/03/01 05:30:32;;;;;;;;;;;;;;;;;;4950522;28;20349;-49
2023/03/01 05:32:58;;;;;;;;;;;;;;;;;;4955568;29;19911;-48
2023/03/01 05:35:24;;;;;;;;;;;;;;;;;;4954683;29;20283;-47
2023/03/01 05:37:50;;;;;;;;;;;;;;;;;;4955846;29;19937;-48
2023/03/01 05:40:16;;;;;;;;;;;;;;;;;;4954509;29;19913;-47
2023/03/01 05:42:41;;;;;;;;;;;;;;;;;;4955575;29;20460;-47
2023/03/01 05:45:09;;;;;;;;;;;;;;;;;;4954060;28;19949;-48
2023/03/01 05:47:35;;;;;;;;;;;;;;;;;;4950263;28;19915;-47
2023/03/01 05:50:01;;;;;;;;;;;;;;;;;;4960328;28;19910;-46
2023/03/01 05:52:27;;;;;;;;;;;;;;;;;;4955074;29;19910;-46
2023/03/01 05:54:53;;;;;;;;;;;;;;;;;;4955114;29;19929;-45
2023/03/01 05:57:18;;;;;;;;;;;;;;;;;;4954583;29;19961;-46
2023/03/01 05:59:44;;;;;;;;;;;;;;;;;;4955145;29;20375;-47
2023/03/01 06:02:10;;;;;;;;;;;;;;;;;;4954236;29;19910;-46
2023/03/01 06:04:36;;;;;;;;;;;;;;;;;;4950296;28;19953;-48
2023/03/01 06:07:02;;;;;;;;;;;;;;;;;;4954586;29;20009;-47
2023/03/01 06:09:28;;;;;;;;;;;;;;;;;;4954588;29;19914;-48
2023/03/01 06:11:54;;;;;;;;;;;;;;;;;;4954078;29;19906;-52
2023/03/01 06:14:20;;;;;;;;;;;;;;;;;;4962295;28;19918;-51
2023/03/01 06:16:46;;;;;;;;;;;;;;;;;;4974465;28;19976;-52
2023/03/01 06:19:12;;;;;;;;;;;;;;;;;;4973350;28;19937;-51
2023/03/01 06:21:38;;;;;;;;;;;;;;;;;;4964313;28;19910;-48
2023/03/01 06:24:05;;;;;;;;;;;;;;;;;;4970951;28;19913;-46
2023/03/01 06:26:31;;;;;;;;;;;;;;;;;;4963893;28;19914;-52
2023/03/01 06:28:58;;;;;;;;;;;;;;;;;;4954465;28;19906;-44
2023/03/01 06:31:24;;;;;;;;;;;;;;;;;;4963660;28;19914;-47
2023/03/01 06:33:50;;;;;;;;;;;;;;;;;;4970883;28;20271;-45
2023/03/01 06:36:18;;;;;;;;;;;;;;;;;;4963523;28;19906;-47
2023/03/01 06:38:44;;;;;;;;;;;;;;;;;;4973735;28;20279;-46
2023/03/01 06:41:10;;;;;;;;;;;;;;;;;;4942988;28;19914;-45
2023/03/01 06:43:36;;;;;;;;;;;;;;;;;;4953475;28;19910;-46
2023/03/01 06:46:01;;;;;;;;;;;;;;;;;;4955676;28;19962;-49
2023/03/01 06:48:27;;;;;;;;;;;;;;;;;;4956751;28;20377;-46
2023/03/01 06:50:53;;;;;;;;;;;;;;;;;;4948545;28;19910;-49
2023/03/01 06:53:19;;;;;;;;;;;;;;;;;;4956049;28;19910;-47
2023/03/01 06:55:45;;;;;;;;;;;;;;;;;;4953176;28;20355;-46
2023/03/01 06:58:11;;;;;;;;;;;;;;;;;;4953017;28;20057;-46
2023/03/01 07:00:37;;;;;;;;;;;;;;;;;;4963198;28;19910;-48
2023/03/01 07:03:03;;;;;;;;;;;;;;;;;;4971463;28;20441;-45
2023/03/01 07:05:29;;;;;;;;;;;;;;;;;;4958691;28;19925;-46
2023/03/01 07:07:56;;;;;;;;;;;;;;;;;;4966011;28;19922;-46
2023/03/01 07:10:21;;;;;;;;;;;;;;;;;;4966012;28;20576;-50
2023/03/01 07:12:47;;;;;;;;;;;;;;;;;;4973278;28;19938;-50
2023/03/01 07:15:14;;;;;;;;;;;;;;;;;;4970677;28;19953;-46
2023/03/01 07:17:44;;;;;;;;;;;;;;;;;;4964161;28;20009;-48
2023/03/01 07:20:10;;;;;;;;;;;;;;;;;;4971831;28;20283;-47
2023/03/01 07:22:35;;;;;;;;;;;;;;;;;;4962314;28;19914;-47
2023/03/01 07:25:01;;;;;;;;;;;;;;;;;;4965181;28;19910;-46
2023/03/01 07:27:27;;;;;;;;;;;;;;;;;;4971602;28;19912;-46
2023/03/01 07:29:53;;;;;;;;;;;;;;;;;;4954260;28;20330;-48
2023/03/01 07:32:19;;;;;;;;;;;;;;;;;;4948089;28;19914;-46
2023/03/01 07:34:45;;;;;;;;;;;;;;;;;;4961363;28;19916;-46
2023/03/01 07:37:11;;;;;;;;;;;;;;;;;;4963833;28;19920;-48
2023/03/01 07:39:37;;;;;;;;;;;;;;;;;;4961244;28;19906;-46
2023/03/01 07:42:02;;;;;;;;;;;;;;;;;;4961559;28;20040;-45
2023/03/01 07:44:28;;;;;;;;;;;;;;;;;;4967932;28;19934;-46
2023/03/01 07:46:56;;;;;;;;;;;;;;;;;;4962585;28;19963;-46
2023/03/01 07:49:22;;;;;;;;;;;;;;;;;;4958142;28;19951;-46
2023/03/01 07:51:47;;;;;;;;;;;;;;;;;;4963612;28;19913;-48
2023/03/01 07:54:13;;;;;;;;;;;;;;;;;;4965468;28;19906;-46
2023/03/01 07:56:40;;;;;;;;;;;;;;;;;;4964904;28;20017;-47
2023/03/01 07:59:06;;;;;;;;;;;;;;;;;;4965077;28;20005;-46
2023/03/01 08:01:32;;;;;;;;;;;;;;;;;;4960120;28;20053;-46
2023/03/01 08:03:58;;;;;;;;;;;;;;;;;;4964554;28;20316;-47
2023/03/01 08:06:24;;;;;;;;;;;;;;;;;;4955114;28;19906;-47
2023/03/01 08:08:50;;;;;;;;;;;;;;;;;;4961617;28;20402;-47
2023/03/01 08:11:15;;;;;;;;;;;;;;;;;;4972854;28;20061;-46
2023/03/01 08:13:41;;;;;;;;;;;;;;;;;;4975556;28;19925;-47
2023/03/01 08:16:07;;;;;;;;;;;;;;;;;;4960497;28;20461;-47
2023/03/01 08:18:33;;;;;;;;;;;;;;;;;;4963258;28;19921;-48
2023/03/01 08:20:59;;;;;;;;;;;;;;;;;;4963085;28;19918;-47
2023/03/01 08:23:25;;;;;;;;;;;;;;;;;;4957539;28;19996;-47
2023/03/01 08:25:52;;;;;;;;;;;;;;;;;;4956151;28;19906;-46
2023/03/01 08:28:18;;;;;;;;;;;;;;;;;;4956213;28;19914;-47
2023/03/01 08:30:44;;;;;;;;;;;;;;;;;;4960188;28;19913;-47
2023/03/01 08:33:10;;;;;;;;;;;;;;;;;;4959079;28;19988;-46
2023/03/01 08:35:36;;;;;;;;;;;;;;;;;;4959600;28;20291;-46
2023/03/01 08:38:02;;;;;;;;;;;;;;;;;;4957280;28;19925;-46
2023/03/01 08:40:27;;;;;;;;;;;;;;;;;;4960009;28;19977;-49
2023/03/01 08:42:53;;;;;;;;;;;;;;;;;;4966008;28;19912;-47
2023/03/01 08:45:19;;;;;;;;;;;;;;;;;;4970510;28;19906;-46
2023/03/01 08:47:45;;;;;;;;;;;;;;;;;;4974483;28;20335;-47
2023/03/01 08:50:11;;;;;;;;;;;;;;;;;;4963524;28;19907;-46
2023/03/01 08:52:37;;;;;;;;;;;;;;;;;;4967741;28;19906;-50
2023/03/01 08:55:03;;;;;;;;;;;;;;;;;;4963658;28;19997;-46
2023/03/01 08:57:29;;;;;;;;;;;;;;;;;;4956584;28;19922;-48
2023/03/01 08:59:55;;;;;;;;;;;;;;;;;;4964626;28;19965;-46
2023/03/01 09:02:21;;;;;;;;;;;;;;;;;;4968254;28;19903;-46
2023/03/01 09:04:47;;;;;;;;;;;;;;;;;;4966320;28;19961;-48
2023/03/01 09:07:13;;;;;;;;;;;;;;;;;;4957826;28;20471;-46
2023/03/01 09:09:39;;;;;;;;;;;;;;;;;;4968334;28;19968;-46
2023/03/01 09:12:05;;;;;;;;;;;;;;;;;;4965724;28;19914;-46
2023/03/01 09:14:31;;;;;;;;;;;;;;;;;;4967853;28;20417;-46
2023/03/01 09:16:57;;;;;;;;;;;;;;;;;;4962759;28;19915;-47
2023/03/01 09:19:23;;;;;;;;;;;;;;;;;;4968852;28;19906;-46
2023/03/01 09:21:52;;;;;;;;;;;;;;;;;;4959537;28;19917;-47
2023/03/01 09:24:18;;;;;;;;;;;;;;;;;;4956082;28;19910;-50
2023/03/01 09:26:46;;;;;;;;;;;;;;;;;;4961794;28;19912;-46
2023/03/01 09:29:11;;;;;;;;;;;;;;;;;;4958681;28;20430;-47
2023/03/01 09:31:37;;;;;;;;;;;;;;;;;;4956147;28;19906;-47
2023/03/01 09:34:03;;;;;;;;;;;;;;;;;;4961907;28;19968;-45
2023/03/01 09:36:29;;;;;;;;;;;;;;;;;;4967410;28;19914;-46
2023/03/01 09:38:55;;;;;;;;;;;;;;;;;;4972991;28;19983;-46
2023/03/01 09:41:21;;;;;;;;;;;;;;;;;;4963166;28;19909;-46
2023/03/01 09:43:47;;;;;;;;;;;;;;;;;;4966834;28;19993;-46
2023/03/01 09:46:16;;;;;;;;;;;;;;;;;;4964173;28;19998;-46
2023/03/01 09:48:42;;;;;;;;;;;;;;;;;;4966555;28;19949;-46
2023/03/01 09:51:08;;;;;;;;;;;;;;;;;;4961681;28;19948;-47
2023/03/01 09:53:35;;;;;;;;;;;;;;;;;;4969205;28;20016;-46
2023/03/01 09:56:00;;;;;;;;;;;;;;;;;;4969107;28;20263;-47
2023/03/01 09:58:26;;;;;;;;;;;;;;;;;;4958504;28;19922;-47
2023/03/01 10:00:52;;;;;;;;;;;;;;;;;;4965180;28;19910;-46
2023/03/01 10:03:18;;;;;;;;;;;;;;;;;;4956877;28;19930;-46
2023/03/01 10:05:44;;;;;;;;;;;;;;;;;;4951836;28;20049;-47
2023/03/01 10:08:10;;;;;;;;;;;;;;;;;;4959981;28;20001;-46
2023/03/01 10:10:36;;;;;;;;;;;;;;;;;;4967994;28;19914;-46
2023/03/01 10:13:02;;;;;;;;;;;;;;;;;;4973490;28;19953;-45
2023/03/01 10:15:28;;;;;;;;;;;;;;;;;;4962122;28;20016;-47
2023/03/01 10:17:53;;;;;;;;;;;;;;;;;;4964841;28;20377;-47
2023/03/01 10:20:19;;;;;;;;;;;;;;;;;;4964524;28;19914;-47
2023/03/01 10:22:50;;;;;;;;;;;;;;;;;;4965186;28;19917;-46
2023/03/01 10:25:16;;;;;;;;;;;;;;;;;;4960281;28;19952;-46
2023/03/01 10:27:41;;;;;;;;;;;;;;;;;;4965557;28;19938;-47
2023/03/01 10:30:07;;;;;;;;;;;;;;;;;;4966415;28;19906;-46
2023/03/01 10:32:33;;;;;;;;;;;;;;;;;;4956783;28;20316;-48
2023/03/01 10:34:59;;;;;;;;;;;;;;;;;;4966058;28;19906;-49
2023/03/01 10:37:27;;;;;;;;;;;;;;;;;;4954540;28;20013;-52
2023/03/01 10:39:52;;;;;;;;;;;;;;;;;;4956664;28;19997;-47
2023/03/01 10:42:18;;;;;;;;;;;;;;;;;;4960495;28;20331;-46
2023/03/01 10:44:44;;;;;;;;;;;;;;;;;;4968098;28;19961;-47
2023/03/01 10:47:10;;;;;;;;;;;;;;;;;;4972072;28;19906;-47
2023/03/01 10:49:36;;;;;;;;;;;;;;;;;;4962246;28;19929;-46
2023/03/01 10:52:02;;;;;;;;;;;;;;;;;;4963295;28;20021;-45
2023/03/01 10:54:28;;;;;;;;;;;;;;;;;;4965076;28;19944;-49
2023/03/01 10:56:54;;;;;;;;;;;;;;;;;;4963756;28;20391;-47
2023/03/01 10:59:20;;;;;;;;;;;;;;;;;;4962655;28;20074;-47
2023/03/01 11:01:45;;;;;;;;;;;;;;;;;;4967648;28;19906;-46
2023/03/01 11:04:11;;;;;;;;;;;;;;;;;;4966836;28;19914;-47
2023/03/01 11:06:37;;;;;;;;;;;;;;;;;;4954737;28;20012;-46
2023/03/01 11:09:03;;;;;;;;;;;;;;;;;;4963569;28;19965;-47
2023/03/01 11:11:30;;;;;;;;;;;;;;;;;;4952876;28;20009;-47
2023/03/01 11:13:56;;;;;;;;;;;;;;;;;;4967450;28;20347;-50
2023/03/01 11:16:21;;;;;;;;;;;;;;;;;;4955316;28;19985;-46
2023/03/01 11:18:47;;;;;;;;;;;;;;;;;;4965756;28;19914;-47
2023/03/01 11:21:13;;;;;;;;;;;;;;;;;;4970127;28;19906;-47
2023/03/01 11:23:39;;;;;;;;;;;;;;;;;;4947158;28;19919;-48
2023/03/01 11:26:05;;;;;;;;;;;;;;;;;;4951861;28;19917;-46
2023/03/01 11:28:31;;;;;;;;;;;;;;;;;;4963303;28;20012;-47
2023/03/01 11:30:57;;;;;;;;;;;;;;;;;;4963278;28;20436;-48
2023/03/01 11:33:23;;;;;;;;;;;;;;;;;;4961183;28;19902;-49
2023/03/01 11:35:48;;;;;;;;;;;;;;;;;;4962809;28;19941;-47
2023/03/01 11:38:14;;;;;;;;;;;;;;;;;;4967917;28;20326;-47
2023/03/01 11:40:40;;;;;;;;;;;;;;;;;;4963064;28;19913;-47
2023/03/01 11:43:06;;;;;;;;;;;;;;;;;;4963430;28;20001;-48
2023/03/01 11:45:32;;;;;;;;;;;;;;;;;;4953085;28;19907;-48
2023/03/01 11:47:58;;;;;;;;;;;;;;;;;;4970509;28;19907;-48
2023/03/01 11:50:24;;;;;;;;;;;;;;;;;;4959335;28;20350;-46
2023/03/01 11:52:50;;;;;;;;;;;;;;;;;;4967359;28;19945;-45
2023/03/01 11:55:16;;;;;;;;;;;;;;;;;;4970964;28;19910;-45
2023/03/01 11:57:42;;;;;;;;;;;;;;;;;;4968414;28;19914;-48
2023/03/01 12:00:08;;;;;;;;;;;;;;;;;;4962658;28;20271;-47
2023/03/01 12:02:33;;;;;;;;;;;;;;;;;;4967264;28;19906;-46
2023/03/01 12:04:59;;;;;;;;;;;;;;;;;;4974388;28;19917;-47
2023/03/01 12:07:25;;;;;;;;;;;;;;;;;;4962454;28;19957;-49
2023/03/01 12:09:51;;;;;;;;;;;;;;;;;;4964679;28;20002;-49
2023/03/01 12:12:17;;;;;;;;;;;;;;;;;;4971228;28;19906;-46
2023/03/01 12:14:43;;;;;;;;;;;;;;;;;;4965907;28;20377;-46
2023/03/01 12:17:09;;;;;;;;;;;;;;;;;;4963296;28;19925;-46
2023/03/01 12:19:35;;;;;;;;;;;;;;;;;;4952507;28;20634;-46
2023/03/01 12:22:01;;;;;;;;;;;;;;;;;;4968610;28;19914;-45
2023/03/01 12:24:27;;;;;;;;;;;;;;;;;;4949926;28;19994;-46
2023/03/01 12:26:53;;;;;;;;;;;;;;;;;;4963310;28;20001;-51
2023/03/01 12:29:19;;;;;;;;;;;;;;;;;;4964266;28;19934;-46
2023/03/01 12:31:45;;;;;;;;;;;;;;;;;;4971827;28;19917;-46
2023/03/01 12:34:11;;;;;;;;;;;;;;;;;;4960386;28;20352;-46
2023/03/01 12:36:37;;;;;;;;;;;;;;;;;;4967102;28;20306;-46
2023/03/01 12:39:03;;;;;;;;;;;;;;;;;;4973225;28;19910;-47
2023/03/01 12:41:29;;;;;;;;;;;;;;;;;;4962564;28;19910;-47
2023/03/01 12:43:54;;;;;;;;;;;;;;;;;;4963375;28;19926;-46
2023/03/01 12:46:20;;;;;;;;;;;;;;;;;;4962850;28;19906;-46
2023/03/01 12:48:46;;;;;;;;;;;;;;;;;;4963120;28;19917;-46
2023/03/01 12:51:12;;;;;;;;;;;;;;;;;;4961019;28;19906;-46
2023/03/01 12:53:38;;;;;;;;;;;;;;;;;;4949329;28;20356;-46
2023/03/01 12:56:04;;;;;;;;;;;;;;;;;;4970136;28;19906;-46
2023/03/01 12:58:30;;;;;;;;;;;;;;;;;;4963602;28;19915;-46
2023/03/01 13:00:56;;;;;;;;;;;;;;;;;;4964539;28;19957;-47
2023/03/01 13:03:22;;;;;;;;;;;;;;;;;;4970292;28;19913;-48
2023/03/01 13:05:47;;;;;;;;;;;;;;;;;;4969120;28;19907;-46
2023/03/01 13:08:13;;;;;;;;;;;;;;;;;;4960656;28;20311;-46
2023/03/01 13:10:39;;;;;;;;;;;;;;;;;;4966100;28;20351;-46
2023/03/01 13:13:05;;;;;;;;;;;;;;;;;;4973141;28;19917;-45
2023/03/01 13:15:31;;;;;;;;;;;;;;;;;;4961402;28;20279;-45
2023/03/01 13:17:57;;;;;;;;;;;;;;;;;;4959582;28;20006;-46
2023/03/01 13:20:23;;;;;;;;;;;;;;;;;;4969358;28;19930;-46
2023/03/01 13:22:49;;;;;;;;;;;;;;;;;;4965235;28;19910;-46
2023/03/01 13:25:14;;;;;;;;;;;;;;;;;;4961717;28;20295;-44
2023/03/01 13:27:40;;;;;;;;;;;;;;;;;;4947190;28;19949;-48
2023/03/01 13:30:06;;;;;;;;;;;;;;;;;;4966987;28;19913;-49
2023/03/01 13:32:32;;;;;;;;;;;;;;;;;;4957462;28;20289;-46
2023/03/01 13:34:58;;;;;;;;;;;;;;;;;;4964167;28;19906;-47
2023/03/01 13:37:25;;;;;;;;;;;;;;;;;;4969645;28;19925;-46
2023/03/01 13:39:51;;;;;;;;;;;;;;;;;;4970291;28;19937;-50
2023/03/01 13:42:17;;;;;;;;;;;;;;;;;;4959500;28;20275;-47
2023/03/01 13:44:43;;;;;;;;;;;;;;;;;;4964677;28;19910;-48
2023/03/01 13:47:09;;;;;;;;;;;;;;;;;;4972096;28;19912;-49
2023/03/01 13:49:35;;;;;;;;;;;;;;;;;;4961126;28;20310;-48
2023/03/01 13:52:01;;;;;;;;;;;;;;;;;;4961894;28;19914;-46
2023/03/01 13:54:26;;;;;;;;;;;;;;;;;;4968053;28;19945;-48
2023/03/01 13:56:52;;;;;;;;;;;;;;;;;;4963055;28;19918;-49
2023/03/01 13:59:18;;;;;;;;;;;;;;;;;;4959235;28;19906;-46
2023/03/01 14:01:44;;;;;;;;;;;;;;;;;;4956503;28;20440;-47
2023/03/01 14:04:10;;;;;;;;;;;;;;;;;;4968731;28;19913;-46
2023/03/01 14:06:37;;;;;;;;;;;;;;;;;;4963544;28;19906;-46
2023/03/01 14:09:03;;;;;;;;;;;;;;;;;;4963117;28;19957;-46
2023/03/01 14:11:28;;;;;;;;;;;;;;;;;;4964251;28;20045;-46
2023/03/01 14:13:54;;;;;;;;;;;;;;;;;;4973180;28;20276;-46
2023/03/01 14:16:20;;;;;;;;;;;;;;;;;;4972479;28;19906;-46
2023/03/01 14:18:46;;;;;;;;;;;;;;;;;;4971423;28;20364;-47
2023/03/01 14:21:12;;;;;;;;;;;;;;;;;;4972452;28;19910;-48
2023/03/01 14:23:38;;;;;;;;;;;;;;;;;;4972901;28;19917;-46
2023/03/01 14:26:04;;;;;;;;;;;;;;;;;;4972054;28;20334;-45
2023/03/01 14:28:29;;;;;;;;;;;;;;;;;;4973843;28;19912;-48
2023/03/01 14:30:55;;;;;;;;;;;;;;;;;;4971223;28;19928;-46
2023/03/01 14:33:21;;;;;;;;;;;;;;;;;;4972486;28;19902;-46
2023/03/01 14:35:47;;;;;;;;;;;;;;;;;;4971914;28;20307;-46
2023/03/01 14:38:13;;;;;;;;;;;;;;;;;;4972496;28;20009;-46
2023/03/01 14:40:39;;;;;;;;;;;;;;;;;;4972855;28;19910;-50
2023/03/01 14:43:05;;;;;;;;;;;;;;;;;;4972043;28;20283;-46
2023/03/01 14:45:31;;;;;;;;;;;;;;;;;;4973185;28;20008;-45
2023/03/01 14:47:56;;;;;;;;;;;;;;;;;;4972879;28;19953;-46
2023/03/01 14:50:22;;;;;;;;;;;;;;;;;;4971835;28;19963;-47
2023/03/01 14:52:48;;;;;;;;;;;;;;;;;;4973124;28;19906;-46
2023/03/01 14:55:14;;;;;;;;;;;;;;;;;;4971549;28;19910;-46
2023/03/01 14:57:40;;;;;;;;;;;;;;;;;;4972034;28;19978;-46
2023/03/01 15:00:06;;;;;;;;;;;;;;;;;;4968533;28;20266;-48
2023/03/01 15:02:32;;;;;;;;;;;;;;;;;;4973039;28;19913;-46
2023/03/01 15:05:00;;;;;;;;;;;;;;;;;;4972430;28;19913;-47
2023/03/01 15:07:26;;;;;;;;;;;;;;;;;;4972391;28;19921;-47
2023/03/01 15:09:52;;;;;;;;;;;;;;;;;;4971995;28;19910;-46
2023/03/01 15:12:18;;;;;;;;;;;;;;;;;;4972219;28;19993;-46
2023/03/01 15:14:43;;;;;;;;;;;;;;;;;;4971809;28;19945;-47
2023/03/01 15:17:09;;;;;;;;;;;;;;;;;;4971426;28;19969;-47
2023/03/01 15:19:35;;;;;;;;;;;;;;;;;;4972094;28;20332;-46
2023/03/01 15:22:11;;;;;;;;;;;;;;;;;;4972838;28;19913;-45
2023/03/01 15:24:37;;;;;;;;;;;;;;;;;;4972193;28;19973;-47
2023/03/01 15:27:06;;;;;;;;;;;;;;;;;;4971042;28;19913;-45
2023/03/01 15:29:33;;;;;;;;;;;;;;;;;;4971954;28;19921;-46
2023/03/01 15:31:59;;;;;;;;;;;;;;;;;;4972561;28;20012;-46
2023/03/01 15:34:25;;;;;;;;;;;;;;;;;;4971464;28;20726;-45
2023/03/01 15:36:50;;;;;;;;;;;;;;;;;;4972603;28;19912;-46
2023/03/01 15:39:16;;;;;;;;;;;;;;;;;;4970700;28;19906;-47
2023/03/01 15:41:42;;;;;;;;;;;;;;;;;;4972212;28;19906;-46
2023/03/01 15:44:08;;;;;;;;;;;;;;;;;;4971197;28;20323;-47
2023/03/01 15:46:34;;;;;;;;;;;;;;;;;;4972299;28;19936;-47
2023/03/01 15:49:00;;;;;;;;;;;;;;;;;;4972286;28;19953;-48
2023/03/01 15:51:26;;;;;;;;;;;;;;;;;;4971101;28;19906;-47
2023/03/01 15:53:52;;;;;;;;;;;;;;;;;;4972633;28;20378;-46
2023/03/01 15:56:17;;;;;;;;;;;;;;;;;;4971388;28;19957;-47
2023/03/01 15:58:43;;;;;;;;;;;;;;;;;;4972188;28;19914;-46
2023/03/01 16:01:12;;;;;;;;;;;;;;;;;;4970668;28;20316;-47
2023/03/01 16:03:38;;;;;;;;;;;;;;;;;;4972626;28;19906;-47
2023/03/01 16:06:04;;;;;;;;;;;;;;;;;;4971275;28;19914;-46
2023/03/01 16:08:30;;;;;;;;;;;;;;;;;;4972329;28;20370;-47
2023/03/01 16:10:56;;;;;;;;;;;;;;;;;;4971082;28;19941;-46
2023/03/01 16:13:21;;;;;;;;;;;;;;;;;;4969886;28;19902;-47
2023/03/01 16:15:47;;;;;;;;;;;;;;;;;;4957129;28;19910;-51
2023/03/01 16:18:13;;;;;;;;;;;;;;;;;;4957876;28;19919;-46
2023/03/01 16:20:39;;;;;;;;;;;;;;;;;;4958523;28;20274;-47
2023/03/01 16:23:05;;;;;;;;;;;;;;;;;;4959934;28;19914;-46
2023/03/01 16:25:32;;;;;;;;;;;;;;;;;;4953350;28;21722;-46
2023/03/01 16:28:00;;;;;;;;;;;;;;;;;;4956714;28;20365;-46
2023/03/01 16:30:25;;;;;;;;;;;;;;;;;;4960238;28;20431;-46
2023/03/01 16:32:51;;;;;;;;;;;;;;;;;;4956191;28;19918;-46
2023/03/01 16:35:17;;;;;;;;;;;;;;;;;;4955058;29;19960;-46
2023/03/01 16:37:43;;;;;;;;;;;;;;;;;;4956001;29;20391;-46